LGZA

Details ICAO LGZA (ZTH)
Name Dionysios Solomos
Region Greece
Timezone Europe/Athens (UTC+3.0)
Plans Departing 119
Arriving 210
Stats Elevation 14 ft / 4 m (AMSL)
Location 37.751230° 20.884106°
Runways 1
Magnetic Variation 4.115° E
Sunrise 2018-05-26 03:20:38 UTC / 2018-05-26 06:20:38 Local
Sunset 2018-05-26 17:49:14 UTC / 2018-05-26 20:49:14 Local
Advertisement - Login to hide

Runways

ID Width Length Bearing (true) Bearing (mag) Surface Threshold Offset Overrun Length
16 148 ft / 45 m 7,315 ft / 2,230 m 163.49° 159.37° Asphalt 715 ft / 218 m 112 ft / 34 m
34 148 ft / 45 m 7,315 ft / 2,230 m 343.49° 339.37° Asphalt 728 ft / 222 m 135 ft / 41 m

Map

Weather


0- 5 10 15 20 25 30 35+ Temperature / ° C

Clouds and Precipitation
Forecast for 2018-05-26 00:00 UTC. Updated 4 hours ago

Ground ~20,000 ft ~40,000 ft Winds

METAR

LGZA 260250Z 00000KT CAVOK 18/17 Q1013

TAF

Not found

Frequencies

Tower 125.42 MHz ZAKINTHOS TWR
Approach 120.65 MHz ANDRAVIDA APP
Warning: Do not use this data for real-world aviation or navigation. No guarantee of current accuracy is given.